createdAt,value
2023-01-25T00:00:13.780Z,0.72
2023-01-25T00:02:42.223Z,0.46
2023-01-25T00:05:11.602Z,0.51
2023-01-25T00:07:40.132Z,0.50
2023-01-25T00:10:10.280Z,0.52
2023-01-25T00:12:39.300Z,0.39
2023-01-25T00:15:11.669Z,0.26
2023-01-25T00:17:41.410Z,0.37
2023-01-25T00:20:11.887Z,0.36
2023-01-25T00:22:40.571Z,0.44
2023-01-25T00:25:10.522Z,0.50
2023-01-25T00:27:39.124Z,0.51
2023-01-25T00:30:46.764Z,0.53
2023-01-25T00:33:45.716Z,0.36
2023-01-25T00:36:34.843Z,0.41
2023-01-25T00:39:03.349Z,0.46
2023-01-25T00:41:32.377Z,0.59
2023-01-25T00:44:01.514Z,0.62
2023-01-25T00:46:31.735Z,0.47
2023-01-25T00:49:00.451Z,0.62
2023-01-25T00:51:29.331Z,0.59
2023-01-25T00:53:58.417Z,0.54
2023-01-25T00:56:27.207Z,0.51
2023-01-25T00:58:55.973Z,0.37
2023-01-25T01:01:24.603Z,0.54
2023-01-25T01:03:54.955Z,0.55
2023-01-25T01:07:19.488Z,0.59
2023-01-25T01:09:48.207Z,0.73
2023-01-25T01:12:16.817Z,0.72
2023-01-25T01:14:45.754Z,0.50
2023-01-25T01:17:14.357Z,0.34
2023-01-25T01:19:44.513Z,0.26
2023-01-25T01:22:13.192Z,0.33
2023-01-25T01:24:42.305Z,0.34
2023-01-25T01:27:11.248Z,0.54
2023-01-25T01:29:40.030Z,0.61
2023-01-25T01:32:08.802Z,0.60
2023-01-25T01:34:37.684Z,0.68
2023-01-25T01:37:07.937Z,0.60
2023-01-25T01:39:36.428Z,0.66
2023-01-25T01:42:05.723Z,0.64
2023-01-25T01:44:48.718Z,0.55
2023-01-25T01:47:23.894Z,0.48
2023-01-25T01:50:02.573Z,0.43
2023-01-25T01:52:38.980Z,0.46
2023-01-25T01:55:14.700Z,0.43
2023-01-25T01:57:50.488Z,0.51
2023-01-25T02:00:24.587Z,0.33
2023-01-25T02:02:54.079Z,0.28
2023-01-25T02:05:32.159Z,0.27
2023-01-25T02:08:05.302Z,0.43
2023-01-25T02:10:36.093Z,0.38
2023-01-25T02:13:04.862Z,0.38
2023-01-25T02:15:41.942Z,0.51
2023-01-25T02:18:11.952Z,0.52
2023-01-25T02:20:43.655Z,0.62
2023-01-25T02:23:24.951Z,0.46
2023-01-25T02:25:55.378Z,0.45
2023-01-25T02:28:29.011Z,0.62
2023-01-25T02:30:57.886Z,0.47
2023-01-25T02:33:27.525Z,0.33
2023-01-25T02:36:01.448Z,0.26
2023-01-25T02:38:34.391Z,0.29
2023-01-25T02:41:11.677Z,0.18
2023-01-25T02:43:42.212Z,0.30
2023-01-25T02:46:19.637Z,0.42
2023-01-25T02:48:48.311Z,0.27
2023-01-25T02:51:16.798Z,0.37
2023-01-25T02:53:45.151Z,0.43
2023-01-25T02:56:15.244Z,0.46
2023-01-25T02:58:43.985Z,0.49
2023-01-25T03:01:14.692Z,0.41
2023-01-25T03:03:44.007Z,0.35
2023-01-25T03:06:12.769Z,0.35
2023-01-25T03:08:44.652Z,0.37
2023-01-25T03:11:14.528Z,0.55
2023-01-25T03:13:44.631Z,0.36
2023-01-25T03:16:14.594Z,0.49
2023-01-25T03:18:45.962Z,0.41
2023-01-25T03:21:17.334Z,0.45
2023-01-25T03:23:48.395Z,0.46
2023-01-25T03:26:26.426Z,0.40
2023-01-25T03:29:17.542Z,0.12
2023-01-25T03:31:47.581Z,0.13
2023-01-25T03:34:17.143Z,0.31
2023-01-25T03:36:45.731Z,0.33
2023-01-25T03:39:15.102Z,0.35
2023-01-25T03:41:47.137Z,0.33
2023-01-25T03:44:15.633Z,0.28
2023-01-25T03:46:46.707Z,0.37
2023-01-25T03:49:15.080Z,0.36
2023-01-25T03:51:43.907Z,0.35
2023-01-25T03:54:12.555Z,0.22
2023-01-25T03:56:42.180Z,0.17
2023-01-25T03:59:20.645Z,0.28
2023-01-25T04:01:48.952Z,0.33
2023-01-25T04:04:17.794Z,0.23
2023-01-25T04:06:47.908Z,0.27
2023-01-25T04:09:17.639Z,0.19
2023-01-25T04:11:51.542Z,0.06
2023-01-25T04:14:31.973Z,0.07
2023-01-25T04:17:08.588Z,0.02
2023-01-25T04:19:49.759Z,0.09
2023-01-25T04:22:21.533Z,0.08
2023-01-25T04:24:52.700Z,0.06
2023-01-25T04:27:22.114Z,0.13
2023-01-25T04:30:00.416Z,-0.13
2023-01-25T04:32:29.561Z,-0.10
2023-01-25T04:35:00.293Z,-0.14
2023-01-25T04:37:30.711Z,-0.13
2023-01-25T04:40:00.951Z,-0.17
2023-01-25T04:42:34.357Z,-0.26
2023-01-25T04:45:04.984Z,-0.21
2023-01-25T04:47:33.543Z,-0.11
2023-01-25T04:50:02.016Z,-0.08
2023-01-25T04:52:32.649Z,-0.01
2023-01-25T04:55:01.045Z,-0.11
2023-01-25T04:57:32.417Z,-0.06
2023-01-25T05:00:01.087Z,-0.12
2023-01-25T05:02:33.168Z,0.03
2023-01-25T05:05:01.864Z,0.00
2023-01-25T05:07:30.749Z,0.03
2023-01-25T05:09:59.435Z,0.13
2023-01-25T05:12:29.131Z,0.13
2023-01-25T05:15:04.925Z,-0.07
2023-01-25T05:17:35.406Z,0.08
2023-01-25T05:20:04.349Z,0.22
2023-01-25T05:22:33.039Z,0.31
2023-01-25T05:25:02.811Z,0.32
2023-01-25T05:27:31.230Z,0.41
2023-01-25T05:30:21.216Z,0.57
2023-01-25T05:33:04.293Z,0.52
2023-01-25T05:35:32.720Z,0.49
2023-01-25T05:38:01.567Z,0.23
2023-01-25T05:40:30.914Z,0.49
2023-01-25T05:43:02.799Z,0.58
2023-01-25T05:45:32.919Z,0.62
2023-01-25T05:48:04.170Z,0.51
2023-01-25T05:50:32.665Z,0.30
2023-01-25T05:53:05.399Z,0.36
2023-01-25T05:55:37.461Z,0.40
2023-01-25T05:58:10.679Z,0.32
2023-01-25T06:00:40.378Z,0.30
2023-01-25T06:03:10.752Z,0.26
2023-01-25T06:05:41.085Z,0.08
2023-01-25T06:08:09.648Z,0.09
2023-01-25T06:10:47.662Z,0.26
2023-01-25T06:13:16.329Z,0.21
2023-01-25T06:15:44.975Z,0.03
2023-01-25T06:18:38.642Z,-0.02
2023-01-25T06:21:22.465Z,0.04
2023-01-25T06:23:50.815Z,0.26
2023-01-25T06:26:19.415Z,0.11
2023-01-25T06:28:47.961Z,0.30
2023-01-25T06:31:19.160Z,0.35
2023-01-25T06:33:52.938Z,0.51
2023-01-25T06:36:23.848Z,0.35
2023-01-25T06:38:53.875Z,0.44
2023-01-25T06:41:23.180Z,0.52
2023-01-25T06:43:53.005Z,0.60
2023-01-25T06:46:21.810Z,0.30
2023-01-25T06:48:51.987Z,0.39
2023-01-25T06:51:20.954Z,-0.04
2023-01-25T06:53:49.421Z,0.04
2023-01-25T06:56:22.211Z,-0.21
2023-01-25T06:58:51.158Z,-0.28
2023-01-25T07:01:22.566Z,-0.39
2023-01-25T07:03:54.966Z,-0.20
2023-01-25T07:06:24.437Z,-0.32
2023-01-25T07:08:53.424Z,-0.21
2023-01-25T07:11:21.885Z,-0.01
2023-01-25T07:13:50.375Z,-0.02
2023-01-25T07:16:21.740Z,-0.08
2023-01-25T07:18:51.669Z,-0.37
2023-01-25T07:21:23.162Z,-0.27
2023-01-25T07:23:52.349Z,-0.43
2023-01-25T07:26:24.996Z,-0.36
2023-01-25T07:28:53.956Z,-0.32
2023-01-25T07:31:22.627Z,-0.25
2023-01-25T07:33:53.604Z,-0.03
2023-01-25T07:36:23.831Z,0.06
2023-01-25T07:38:55.758Z,0.10
2023-01-25T07:41:25.040Z,0.07
2023-01-25T07:43:54.250Z,0.16
2023-01-25T07:46:34.188Z,0.17
2023-01-25T07:49:04.133Z,0.16
2023-01-25T07:51:32.556Z,0.07
2023-01-25T07:54:03.789Z,0.08
2023-01-25T07:56:34.503Z,0.29
2023-01-25T07:59:04.084Z,0.41
2023-01-25T08:01:36.886Z,0.47
2023-01-25T08:04:09.990Z,0.47
2023-01-25T08:06:41.688Z,0.44
2023-01-25T08:09:14.577Z,0.53
2023-01-25T08:11:43.836Z,0.55
2023-01-25T08:14:12.406Z,0.61
2023-01-25T08:16:41.338Z,0.53
2023-01-25T08:19:12.408Z,0.42
2023-01-25T08:21:40.949Z,0.27
2023-01-25T08:24:10.565Z,0.07
2023-01-25T08:26:39.118Z,-0.15
2023-01-25T08:29:08.584Z,0.06
2023-01-25T08:31:37.813Z,0.24
2023-01-25T08:34:07.244Z,0.41
2023-01-25T08:36:37.131Z,0.37
2023-01-25T08:39:11.640Z,0.22
2023-01-25T08:41:40.386Z,0.25
2023-01-25T08:44:08.856Z,0.41
2023-01-25T08:46:37.034Z,0.14
2023-01-25T08:49:07.601Z,0.25
2023-01-25T08:51:37.449Z,0.35
2023-01-25T08:54:08.443Z,0.28
2023-01-25T08:56:38.830Z,0.05
2023-01-25T08:59:07.690Z,0.11
2023-01-25T09:01:36.500Z,0.00
2023-01-25T09:04:05.230Z,0.00
2023-01-25T09:06:36.296Z,-0.10
2023-01-25T09:09:05.721Z,0.10
2023-01-25T09:11:37.097Z,0.24
2023-01-25T09:14:06.222Z,0.24
2023-01-25T09:16:34.849Z,0.18
2023-01-25T09:19:06.611Z,0.13
2023-01-25T09:21:37.296Z,0.27
2023-01-25T09:24:08.092Z,0.43
2023-01-25T09:26:40.879Z,0.42
2023-01-25T09:29:11.593Z,0.38
2023-01-25T09:31:43.849Z,0.44
2023-01-25T09:34:23.493Z,0.26
2023-01-25T09:36:53.441Z,0.08
2023-01-25T09:39:21.946Z,0.34
2023-01-25T09:42:39.342Z,0.49
2023-01-25T09:45:18.843Z,0.57
2023-01-25T09:47:55.875Z,0.40
2023-01-25T09:50:38.509Z,0.43
2023-01-25T09:53:29.171Z,0.24
2023-01-25T09:56:02.595Z,0.22
2023-01-25T09:58:38.646Z,0.27
2023-01-25T10:01:38.973Z,0.20
2023-01-25T10:04:17.561Z,0.25
2023-01-25T10:06:59.859Z,-0.17
2023-01-25T10:09:41.027Z,0.23
2023-01-25T10:12:20.499Z,0.11
2023-01-25T10:14:50.185Z,0.30
2023-01-25T10:17:28.782Z,0.51
2023-01-25T10:20:16.099Z,0.58
2023-01-25T10:22:52.395Z,0.33
2023-01-25T10:25:32.686Z,0.66
2023-01-25T10:28:31.908Z,0.31
2023-01-25T10:31:07.250Z,0.38
2023-01-25T10:33:44.344Z,0.41
2023-01-25T10:36:17.218Z,0.58
2023-01-25T10:38:50.175Z,0.51
2023-01-25T10:41:27.141Z,0.38
2023-01-25T10:44:21.577Z,0.43
2023-01-25T10:46:57.372Z,0.26
2023-01-25T10:49:30.579Z,0.28
2023-01-25T10:52:12.854Z,0.26
2023-01-25T10:54:41.381Z,0.37
2023-01-25T10:57:18.411Z,0.47
2023-01-25T10:59:50.186Z,0.34
2023-01-25T11:02:51.497Z,0.51
2023-01-25T11:05:30.584Z,0.78
2023-01-25T11:07:59.744Z,0.83
2023-01-25T11:10:36.591Z,0.61
2023-01-25T11:13:34.498Z,0.54
2023-01-25T11:16:28.893Z,0.68
2023-01-25T11:18:59.753Z,0.63
2023-01-25T11:21:30.070Z,0.43
2023-01-25T11:24:06.467Z,0.22
2023-01-25T11:26:37.367Z,0.48
2023-01-25T11:29:16.880Z,0.64
2023-01-25T11:31:49.025Z,0.39
2023-01-25T11:34:20.857Z,0.08
2023-01-25T11:37:22.126Z,0.14
2023-01-25T11:40:00.383Z,0.18
2023-01-25T11:42:39.628Z,0.39
2023-01-25T11:45:52.074Z,0.32
2023-01-25T11:48:43.522Z,0.35
2023-01-25T11:51:20.205Z,0.33
2023-01-25T11:54:06.594Z,-0.03
2023-01-25T11:56:51.054Z,0.05
2023-01-25T11:59:54.164Z,-0.05
2023-01-25T12:02:54.526Z,-0.15
2023-01-25T12:05:54.736Z,-0.21
2023-01-25T12:08:55.895Z,-0.27
2023-01-25T12:11:45.848Z,-0.15
2023-01-25T12:14:28.894Z,-0.05
2023-01-25T12:17:23.875Z,-0.54
2023-01-25T12:20:18.709Z,-0.32
2023-01-25T12:23:22.014Z,-0.24
2023-01-25T12:26:05.713Z,-0.27
2023-01-25T12:28:41.466Z,-0.43
2023-01-25T12:31:18.384Z,-0.43
2023-01-25T12:33:54.921Z,-0.25
2023-01-25T12:36:30.104Z,-0.04
2023-01-25T12:39:04.416Z,-0.41
2023-01-25T12:41:42.451Z,-0.43
2023-01-25T12:44:20.406Z,-0.20
2023-01-25T12:46:58.643Z,0.12
2023-01-25T12:49:34.794Z,0.08
2023-01-25T12:52:16.734Z,0.09
2023-01-25T12:54:49.042Z,0.06
2023-01-25T12:57:27.216Z,-0.15
2023-01-25T13:00:06.954Z,-0.14
2023-01-25T13:03:04.586Z,-0.20
2023-01-25T13:05:41.020Z,-0.09
2023-01-25T13:08:31.778Z,-0.27
2023-01-25T13:11:15.544Z,-0.27
2023-01-25T13:13:44.326Z,-0.15
2023-01-25T13:16:38.175Z,-0.07
2023-01-25T13:19:21.873Z,0.14
2023-01-25T13:21:56.578Z,0.21
2023-01-25T13:24:32.985Z,-0.01
2023-01-25T13:27:24.521Z,0.13
2023-01-25T13:30:03.509Z,0.02
2023-01-25T13:33:07.825Z,0.07
2023-01-25T13:35:42.083Z,0.01
2023-01-25T13:38:36.493Z,0.15
2023-01-25T13:41:12.252Z,0.02
2023-01-25T13:43:44.287Z,0.34
2023-01-25T13:46:17.689Z,0.29
2023-01-25T13:49:05.557Z,0.10
2023-01-25T13:51:41.136Z,0.26
2023-01-25T13:54:18.250Z,-0.08
2023-01-25T13:56:48.252Z,0.10
2023-01-25T13:59:27.679Z,-0.13
2023-01-25T14:01:57.323Z,-0.12
2023-01-25T14:04:26.916Z,-0.14
2023-01-25T14:07:00.644Z,-0.09
2023-01-25T14:09:30.654Z,-0.23
2023-01-25T14:12:06.768Z,-0.15
2023-01-25T14:14:36.623Z,-0.04
2023-01-25T14:17:22.064Z,-0.28
2023-01-25T14:19:52.539Z,-0.24
2023-01-25T14:22:33.805Z,0.11
2023-01-25T14:25:14.605Z,-0.20
2023-01-25T14:27:48.118Z,-0.02
2023-01-25T14:30:23.905Z,0.08
2023-01-25T14:32:54.896Z,-0.06
2023-01-25T14:35:54.545Z,-0.31
2023-01-25T14:38:34.774Z,-0.39
2023-01-25T14:41:12.962Z,-0.47
2023-01-25T14:43:46.192Z,-0.58
2023-01-25T14:46:38.622Z,-0.33
2023-01-25T14:49:25.721Z,-0.05
2023-01-25T14:52:03.320Z,-0.21
2023-01-25T14:54:35.722Z,-0.30
2023-01-25T14:57:05.676Z,-0.34
2023-01-25T14:59:39.789Z,-0.30
2023-01-25T15:02:26.012Z,-0.62
2023-01-25T15:05:10.906Z,-0.61
2023-01-25T15:07:46.472Z,-0.40
2023-01-25T15:10:22.483Z,-0.29
2023-01-25T15:13:12.404Z,-0.38
2023-01-25T15:15:55.183Z,-0.45
2023-01-25T15:18:47.500Z,-0.18
2023-01-25T15:21:17.531Z,-0.35
2023-01-25T15:23:48.126Z,-0.43
2023-01-25T15:26:22.020Z,-0.39
2023-01-25T15:28:52.038Z,-0.48
2023-01-25T15:31:25.945Z,-0.48
2023-01-25T15:33:55.342Z,-0.81
2023-01-25T15:36:23.823Z,-0.84
2023-01-25T15:38:52.546Z,-0.98
2023-01-25T15:41:21.365Z,-0.81
2023-01-25T15:43:51.131Z,-0.76
2023-01-25T15:46:24.860Z,-0.67
2023-01-25T15:48:54.547Z,-0.79
2023-01-25T15:51:23.453Z,-1.04
2023-01-25T15:53:52.239Z,-0.83
2023-01-25T15:56:22.725Z,-1.00
2023-01-25T15:58:54.405Z,-0.98
2023-01-25T16:01:27.514Z,-0.92
2023-01-25T16:03:59.314Z,-0.80
2023-01-25T16:06:40.004Z,-1.03
2023-01-25T16:09:18.472Z,-1.04
2023-01-25T16:11:50.560Z,-1.24
2023-01-25T16:14:19.871Z,-1.24
2023-01-25T16:16:54.283Z,-1.22
2023-01-25T16:19:25.359Z,-1.17
2023-01-25T16:21:54.908Z,-1.23
2023-01-25T16:24:26.178Z,-1.26
2023-01-25T16:26:57.326Z,-1.20
2023-01-25T16:29:26.211Z,-1.30
2023-01-25T16:31:57.350Z,-1.25
2023-01-25T16:34:26.220Z,-1.36
2023-01-25T16:36:54.467Z,-1.40
2023-01-25T16:39:27.292Z,-1.35
2023-01-25T16:41:57.630Z,-1.26
2023-01-25T16:44:26.613Z,-1.26
2023-01-25T16:46:58.763Z,-1.25
2023-01-25T16:49:29.881Z,-1.14
2023-01-25T16:51:59.304Z,-1.23
2023-01-25T16:54:28.035Z,-1.30
2023-01-25T16:56:56.575Z,-1.31
2023-01-25T16:59:25.938Z,-1.22
2023-01-25T17:01:56.431Z,-1.28
2023-01-25T17:04:25.103Z,-1.47
2023-01-25T17:06:54.151Z,-1.52
2023-01-25T17:09:25.458Z,-1.36
2023-01-25T17:11:55.235Z,-1.45
2023-01-25T17:14:24.680Z,-1.35
2023-01-25T17:16:53.426Z,-1.30
2023-01-25T17:19:23.610Z,-1.57
2023-01-25T17:21:51.859Z,-1.63
2023-01-25T17:24:22.801Z,-1.49
2023-01-25T17:26:51.604Z,-1.41
2023-01-25T17:29:20.164Z,-1.50
2023-01-25T17:31:49.199Z,-1.62
2023-01-25T17:34:19.837Z,-1.64
2023-01-25T17:36:51.240Z,-1.57
2023-01-25T17:39:21.530Z,-1.59
2023-01-25T17:41:51.886Z,-1.76
2023-01-25T17:44:24.752Z,-1.76
2023-01-25T17:46:53.468Z,-1.79
2023-01-25T17:49:22.542Z,-1.67
2023-01-25T17:51:52.604Z,-1.89
2023-01-25T17:54:20.921Z,-1.92
2023-01-25T17:56:49.512Z,-1.83
2023-01-25T17:59:18.423Z,-1.89
2023-01-25T18:01:46.793Z,-1.85
2023-01-25T18:04:17.536Z,-1.98
2023-01-25T18:06:46.351Z,-1.99
2023-01-25T18:09:16.004Z,-1.66
2023-01-25T18:11:44.618Z,-1.62
2023-01-25T18:14:17.043Z,-1.79
2023-01-25T18:16:45.941Z,-1.94
2023-01-25T18:19:14.963Z,-1.86
2023-01-25T18:21:43.602Z,-1.81
2023-01-25T18:24:31.573Z,-1.87
2023-01-25T18:27:05.492Z,-1.88
2023-01-25T18:29:46.880Z,-1.83
2023-01-25T18:32:16.380Z,-1.62
2023-01-25T18:34:45.214Z,-1.47
2023-01-25T18:37:21.065Z,-1.88
2023-01-25T18:39:53.980Z,-1.70
2023-01-25T18:42:25.536Z,-1.53
2023-01-25T18:44:54.072Z,-1.78
2023-01-25T18:47:24.568Z,-1.81
2023-01-25T18:49:54.590Z,-1.63
2023-01-25T18:52:24.699Z,-1.73
2023-01-25T18:54:55.615Z,-1.92
2023-01-25T18:57:24.329Z,-1.95
2023-01-25T18:59:53.777Z,-1.78
2023-01-25T19:02:23.479Z,-1.77
2023-01-25T19:04:51.985Z,-1.86
2023-01-25T19:07:20.683Z,-2.04
2023-01-25T19:09:49.338Z,-2.08
2023-01-25T19:12:19.043Z,-2.00
2023-01-25T19:14:47.510Z,-1.86
2023-01-25T19:17:15.734Z,-1.85
2023-01-25T19:19:44.350Z,-2.03
2023-01-25T19:22:12.928Z,-1.86
2023-01-25T19:24:41.499Z,-2.06
2023-01-25T19:27:09.907Z,-2.05
2023-01-25T19:29:39.748Z,-2.00
2023-01-25T19:32:10.641Z,-1.92
2023-01-25T19:34:39.674Z,-1.80
2023-01-25T19:37:07.979Z,-2.10
2023-01-25T19:39:37.168Z,-2.17
2023-01-25T19:42:06.692Z,-1.94
2023-01-25T19:44:35.386Z,-1.71
2023-01-25T19:47:07.679Z,-1.65
2023-01-25T19:49:36.251Z,-1.72
2023-01-25T19:52:04.720Z,-1.92
2023-01-25T19:54:32.986Z,-2.01
2023-01-25T19:57:01.430Z,-1.86
2023-01-25T19:59:30.299Z,-1.71
2023-01-25T20:01:58.839Z,-1.93
2023-01-25T20:04:28.693Z,-2.08
2023-01-25T20:06:57.097Z,-1.97
2023-01-25T20:09:28.352Z,-2.16
2023-01-25T20:11:58.214Z,-2.23
2023-01-25T20:14:26.792Z,-2.19
2023-01-25T20:16:55.619Z,-2.05
2023-01-25T20:19:24.091Z,-2.25
2023-01-25T20:21:54.467Z,-2.23
2023-01-25T20:24:23.485Z,-2.15
2023-01-25T20:26:52.623Z,-2.44
2023-01-25T20:29:22.353Z,-2.53
2023-01-25T20:31:51.144Z,-2.37
2023-01-25T20:34:21.514Z,-2.48
2023-01-25T20:36:51.104Z,-2.32
2023-01-25T20:39:22.811Z,-2.46
2023-01-25T20:41:53.749Z,-2.34
2023-01-25T20:44:22.474Z,-2.33
2023-01-25T20:46:54.505Z,-2.19
2023-01-25T20:49:23.540Z,-2.34
2023-01-25T20:51:51.788Z,-2.31
2023-01-25T20:54:22.058Z,-2.28
2023-01-25T20:56:50.750Z,-2.18
2023-01-25T20:59:20.001Z,-2.40
2023-01-25T21:01:50.272Z,-2.57
2023-01-25T21:04:20.138Z,-2.57
2023-01-25T21:06:48.946Z,-2.52
2023-01-25T21:09:17.825Z,-2.63
2023-01-25T21:11:48.868Z,-2.86
2023-01-25T21:14:19.584Z,-2.68
2023-01-25T21:16:48.267Z,-2.85
2023-01-25T21:19:16.496Z,-3.05
2023-01-25T21:21:46.594Z,-3.06
2023-01-25T21:24:15.034Z,-3.25
2023-01-25T21:26:44.048Z,-3.14
2023-01-25T21:29:16.460Z,-3.09
2023-01-25T21:31:44.794Z,-3.09
2023-01-25T21:34:13.259Z,-3.11
2023-01-25T21:36:41.930Z,-3.16
2023-01-25T21:39:10.890Z,-2.91
2023-01-25T21:41:39.901Z,-2.95
2023-01-25T21:44:26.141Z,-2.77
2023-01-25T21:47:23.514Z,-2.67
2023-01-25T21:50:02.864Z,-2.90
2023-01-25T21:52:31.334Z,-2.57
2023-01-25T21:54:59.790Z,-2.47
2023-01-25T21:57:28.328Z,-2.47
2023-01-25T21:59:56.874Z,-2.47
2023-01-25T22:02:27.175Z,-2.47
2023-01-25T22:04:55.647Z,-2.87
2023-01-25T22:07:24.524Z,-3.00
2023-01-25T22:09:53.145Z,-3.07
2023-01-25T22:12:21.596Z,-2.86
2023-01-25T22:14:49.852Z,-2.68
2023-01-25T22:17:19.845Z,-2.57
2023-01-25T22:19:50.005Z,-2.51
2023-01-25T22:22:18.877Z,-2.58
2023-01-25T22:24:48.954Z,-2.31
2023-01-25T22:27:34.028Z,-2.44
2023-01-25T22:30:02.568Z,-2.47
2023-01-25T22:32:31.276Z,-2.30
2023-01-25T22:35:01.551Z,-2.33
2023-01-25T22:37:30.122Z,-2.41
2023-01-25T22:39:58.881Z,-2.65
2023-01-25T22:42:27.561Z,-2.52
2023-01-25T22:44:56.040Z,-2.30
2023-01-25T22:47:24.652Z,-2.34
2023-01-25T22:49:52.946Z,-2.28
2023-01-25T22:52:23.312Z,-2.55
2023-01-25T22:54:52.787Z,-2.43
2023-01-25T22:57:21.415Z,-2.51
2023-01-25T22:59:49.814Z,-2.57
2023-01-25T23:02:18.276Z,-2.50
2023-01-25T23:04:47.066Z,-2.73
2023-01-25T23:07:19.131Z,-2.65
2023-01-25T23:09:51.680Z,-2.60
2023-01-25T23:12:20.392Z,-2.71
2023-01-25T23:14:51.513Z,-2.73
2023-01-25T23:17:38.558Z,-2.53
2023-01-25T23:20:10.611Z,-2.46
2023-01-25T23:22:40.167Z,-2.47
2023-01-25T23:25:13.042Z,-2.77
2023-01-25T23:27:41.479Z,-2.59
2023-01-25T23:30:12.114Z,-2.84
2023-01-25T23:32:45.939Z,-2.80
2023-01-25T23:35:14.372Z,-2.68
2023-01-25T23:37:43.157Z,-2.53
2023-01-25T23:40:16.114Z,-2.48
2023-01-25T23:42:44.667Z,-2.43
2023-01-25T23:45:12.899Z,-2.61
2023-01-25T23:47:41.490Z,-2.72
2023-01-25T23:50:12.403Z,-2.37
2023-01-25T23:52:41.547Z,-2.61
2023-01-25T23:55:13.020Z,-2.50
2023-01-25T23:57:41.607Z,-2.39
